Hauptseite
METAR-TAF:

METAR-TAF

Flughäfen :

Flugplatz Les Eplatures

La Chaux-de-Fonds, Schweiz

Breite: 47-05-03N, Länge: 006-47-37E, Höhe: 1027 m

Beobachtung

Neuester Wetterbericht von vor 31 Minuten, um 01:50 UTC
Wind 1 kt aus unterschiedlichen Richtungen
Temperatur -1°C
Luftfeuchtigkeit 93%
Luftdruck 1018 hPa
Sichtweite 10 km oder mehr

METAR: LSGC 080150Z AUTO VRB01KT 9999 NCD M01/M02 Q1018

Zeit: 04:21 (02:21 UTC)

Prognose

Neuester Wetterbericht von vor 11 Stunden und 56 Minuten, um 14:25 UTC
Gültige Prognose vom 07 um 15 UTC bis 07 um 24 UTC
Wind 5 kt aus West
Sichtweite 10 km oder mehr
Aufgelockert bewölkt in der Höhe von 1500 ft
Durchbrochene Bewölkung in der Höhe von 2000 ft
Übergehend zu
vom 07 um 17 UTC bis 07 um 19 UTC
Sichtweite 10 km oder mehr
keine Wolken unter 1500 m und keine Kumulonimbus oder Gewitterwolken

TAF: LSGC 071425Z 0715/0724 27005KT 9999 SCT015 BKN020 BECMG 0717/0719 CAVOK

Wetterbeobachtungen und Prognosen von mehr als 4000 Flughäfen (METAR und TAF Bericht).

Die verfügbaren Stationen werden durch gelbe und rote Markierungen auf der Karte dargestellt.

Führen Sie die Maus auf sie, um den Namen der Station zu sehen.

Darauf klicken, um die Beobachtung von Wetterbeobachtungen und Prognosen zu sehen.

Um die Karte zu ändern : klicken Sie auf den grünen Tasten mit einem schwarzen Kreuz Zum Vergrößern, auf den grünen Button mit einem Gedankenstrich zu verkleinern, oder auf die grünen Pfeile für benachbarte Karten.


METAR-TAF: